Time;durP1;ratioP1;P1;durP2;ratioP2;P2;SDS_P1;SDS_P2;PMS_P1;PMS_P2;Temp;Humidity;BMP_temperature;BMP_pressure;BME280_temperature;BME280_humidity;BME280_pressure;Samples;Min_cycle;Max_cycle;Signal;HPM_P1;HPM_P2
2023/12/11 00:02:31;;;;;;;7.85;5.55;;;;;;;;;;10286179;28;20490;-68
2023/12/11 00:07:32;;;;;;;6.30;5.35;;;;;;;;;;10286320;28;20127;-69
2023/12/11 00:12:33;;;;;;;5.90;5.18;;;;;;;;;;10286728;28;20147;-66
2023/12/11 00:17:33;;;;;;;7.68;5.43;;;;;;;;;;10286023;28;20027;-70
2023/12/11 00:22:34;;;;;;;7.97;5.72;;;;;;;;;;10269065;28;20027;-70
2023/12/11 00:27:34;;;;;;;5.43;4.93;;;;;;;;;;10286217;28;20386;-71
2023/12/11 00:32:35;;;;;;;6.28;5.28;;;;;;;;;;10286077;28;20054;-70
2023/12/11 00:37:36;;;;;;;6.28;5.20;;;;;;;;;;10285722;28;20034;-70
2023/12/11 00:42:36;;;;;;;8.02;5.43;;;;;;;;;;10285317;28;20042;-70
2023/12/11 00:47:37;;;;;;;7.18;5.45;;;;;;;;;;10285368;28;20030;-70
2023/12/11 00:52:37;;;;;;;7.07;5.07;;;;;;;;;;10284099;28;20023;-71
2023/12/11 00:57:38;;;;;;;5.85;5.18;;;;;;;;;;10267293;28;20414;-70
2023/12/11 01:02:41;;;;;;;6.72;4.90;;;;;;;;;;10284861;28;20043;-71
2023/12/11 01:07:42;;;;;;;5.90;5.10;;;;;;;;;;10284422;28;20031;-70
2023/12/11 01:12:42;;;;;;;6.07;5.18;;;;;;;;;;10283810;28;20536;-71
2023/12/11 01:17:43;;;;;;;6.70;5.28;;;;;;;;;;10267776;28;20027;-71
2023/12/11 01:22:44;;;;;;;5.72;5.13;;;;;;;;;;10284672;28;20035;-67
2023/12/11 01:27:44;;;;;;;7.07;5.35;;;;;;;;;;10288502;28;20031;-68
2023/12/11 01:32:45;;;;;;;6.05;5.20;;;;;;;;;;10258565;28;20066;-69
2023/12/11 01:37:45;;;;;;;6.60;5.15;;;;;;;;;;10291606;28;20027;-68
2023/12/11 01:42:46;;;;;;;7.50;5.10;;;;;;;;;;10274254;28;20368;-66
2023/12/11 01:47:47;;;;;;;8.52;4.97;;;;;;;;;;10291204;28;20035;-66
2023/12/11 01:52:48;;;;;;;5.95;4.80;;;;;;;;;;10290935;28;20097;-67
2023/12/11 01:57:48;;;;;;;5.85;5.25;;;;;;;;;;10303627;23;20027;-51
2023/12/11 02:02:50;;;;;;;7.40;5.05;;;;;;;;;;10290173;28;20030;-52
2023/12/11 02:07:51;;;;;;;5.38;4.88;;;;;;;;;;10290783;28;20038;-49
2023/12/11 02:12:51;;;;;;;6.78;4.93;;;;;;;;;;10290899;28;20026;-58
2023/12/11 02:17:52;;;;;;;5.93;4.97;;;;;;;;;;10272781;28;20097;-54
2023/12/11 02:22:55;;;;;;;5.65;5.03;;;;;;;;;;10290525;28;20026;-52
2023/12/11 02:27:57;;;;;;;5.65;5.03;;;;;;;;;;10272955;28;20081;-51
2023/12/11 02:32:58;;;;;;;6.75;5.40;;;;;;;;;;10289721;28;20529;-52
2023/12/11 02:37:58;;;;;;;5.32;4.63;;;;;;;;;;10288541;28;20082;-51
2023/12/11 02:42:59;;;;;;;10.73;5.22;;;;;;;;;;10290091;28;20030;-50
2023/12/11 02:48:02;;;;;;;5.60;4.97;;;;;;;;;;10289208;28;20031;-50
2023/12/11 02:53:04;;;;;;;5.93;5.32;;;;;;;;;;10289015;28;20385;-52
2023/12/11 02:58:05;;;;;;;6.60;5.07;;;;;;;;;;10289421;28;20035;-50
2023/12/11 03:03:08;;;;;;;5.25;4.72;;;;;;;;;;10288947;28;20386;-51
2023/12/11 03:08:09;;;;;;;7.00;4.78;;;;;;;;;;10288299;28;20113;-52
2023/12/11 03:13:10;;;;;;;5.75;4.53;;;;;;;;;;10287891;28;20026;-53
2023/12/11 03:18:10;;;;;;;5.28;4.63;;;;;;;;;;10288043;28;20023;-52
2023/12/11 03:23:11;;;;;;;4.68;4.28;;;;;;;;;;10288127;28;20480;-52
2023/12/11 03:28:12;;;;;;;5.80;5.07;;;;;;;;;;10286656;28;20367;-53
2023/12/11 03:33:12;;;;;;;5.63;4.80;;;;;;;;;;10287639;28;20058;-52
2023/12/11 03:38:13;;;;;;;6.00;4.88;;;;;;;;;;10286973;28;20030;-50
2023/12/11 03:43:14;;;;;;;6.10;4.72;;;;;;;;;;10287916;28;20035;-55
2023/12/11 03:48:14;;;;;;;6.57;4.75;;;;;;;;;;10286925;28;20031;-52
2023/12/11 03:53:15;;;;;;;6.22;4.55;;;;;;;;;;10286170;28;20121;-50
2023/12/11 03:58:16;;;;;;;6.03;4.80;;;;;;;;;;10286821;28;20383;-51
2023/12/11 04:03:16;;;;;;;5.70;4.40;;;;;;;;;;10286554;28;20027;-53
2023/12/11 04:08:17;;;;;;;5.50;4.55;;;;;;;;;;10286215;28;20470;-47
2023/12/11 04:13:17;;;;;;;5.20;4.70;;;;;;;;;;10286171;28;20050;-51
2023/12/11 04:18:18;;;;;;;5.75;4.70;;;;;;;;;;10268717;28;20408;-50
2023/12/11 04:23:19;;;;;;;5.60;4.32;;;;;;;;;;10285308;28;20086;-50
2023/12/11 04:28:19;;;;;;;5.00;4.55;;;;;;;;;;10285846;28;20475;-52
2023/12/11 04:33:21;;;;;;;6.28;4.57;;;;;;;;;;10285755;28;20026;-50
2023/12/11 04:38:21;;;;;;;4.50;4.10;;;;;;;;;;10285095;28;20456;-51
2023/12/11 04:43:22;;;;;;;5.05;4.55;;;;;;;;;;10285933;28;20038;-52
2023/12/11 04:48:23;;;;;;;5.10;4.60;;;;;;;;;;10285221;28;20478;-51
2023/12/11 04:53:23;;;;;;;4.93;4.25;;;;;;;;;;10285006;28;20034;-54
2023/12/11 04:58:24;;;;;;;5.50;4.90;;;;;;;;;;10284993;28;20047;-50
2023/12/11 05:03:24;;;;;;;6.03;4.82;;;;;;;;;;10290228;28;20027;-52
2023/12/11 05:08:25;;;;;;;5.63;4.53;;;;;;;;;;10293011;28;20027;-55
2023/12/11 05:13:25;;;;;;;5.38;4.53;;;;;;;;;;10293966;28;20046;-51
2023/12/11 05:18:26;;;;;;;5.10;4.60;;;;;;;;;;10292555;28;20027;-53
2023/12/11 05:23:27;;;;;;;4.90;4.40;;;;;;;;;;10292365;28;20390;-53
2023/12/11 05:28:27;;;;;;;5.47;4.50;;;;;;;;;;10292049;28;20038;-60
2023/12/11 05:33:28;;;;;;;4.75;4.25;;;;;;;;;;10292072;28;20062;-62
2023/12/11 05:38:28;;;;;;;5.13;4.63;;;;;;;;;;10291610;28;20027;-55
2023/12/11 05:43:29;;;;;;;5.65;4.72;;;;;;;;;;10292389;28;20034;-53
2023/12/11 05:48:30;;;;;;;5.00;4.50;;;;;;;;;;10291163;28;20023;-55
2023/12/11 05:53:30;;;;;;;5.97;4.35;;;;;;;;;;10291182;28;20419;-51
2023/12/11 05:58:31;;;;;;;4.88;4.38;;;;;;;;;;10290626;28;20106;-54
2023/12/11 06:03:32;;;;;;;5.10;4.40;;;;;;;;;;10291570;28;20477;-52
2023/12/11 06:08:32;;;;;;;4.90;4.40;;;;;;;;;;10291202;28;20065;-59
2023/12/11 06:13:33;;;;;;;4.93;4.40;;;;;;;;;;10289708;28;20027;-50
2023/12/11 06:18:34;;;;;;;5.05;4.50;;;;;;;;;;10290573;28;20274;-54
2023/12/11 06:23:34;;;;;;;5.57;4.88;;;;;;;;;;10290626;28;20442;-52
2023/12/11 06:28:35;;;;;;;5.15;4.53;;;;;;;;;;10290293;28;20114;-50
2023/12/11 06:33:35;;;;;;;6.78;6.10;;;;;;;;;;10289227;28;20098;-57
2023/12/11 06:38:37;;;;;;;9.15;7.32;;;;;;;;;;10288708;28;20039;-62
2023/12/11 06:43:37;;;;;;;10.40;8.23;;;;;;;;;;10290052;28;20042;-51
2023/12/11 06:48:38;;;;;;;11.18;7.70;;;;;;;;;;10288774;28;20474;-51
2023/12/11 06:53:38;;;;;;;11.98;8.50;;;;;;;;;;10288967;28;20029;-58
2023/12/11 06:58:39;;;;;;;19.13;10.95;;;;;;;;;;10288196;28;20039;-59
2023/12/11 07:03:41;;;;;;;14.18;9.85;;;;;;;;;;10288755;28;20073;-47
2023/12/11 07:08:41;;;;;;;16.02;11.77;;;;;;;;;;10289045;28;20076;-50
2023/12/11 07:13:42;;;;;;;17.52;11.88;;;;;;;;;;10288048;28;20551;-50
2023/12/11 07:18:44;;;;;;;14.07;10.70;;;;;;;;;;10287514;28;20050;-48
2023/12/11 07:23:47;;;;;;;19.27;10.90;;;;;;;;;;10286365;28;20176;-55
2023/12/11 07:28:48;;;;;;;19.88;11.48;;;;;;;;;;10288234;28;20065;-54
2023/12/11 07:33:49;;;;;;;14.50;10.48;;;;;;;;;;10288307;28;20041;-54
2023/12/11 07:38:50;;;;;;;16.35;11.10;;;;;;;;;;10287237;28;20023;-55
2023/12/11 07:43:50;;;;;;;17.45;10.52;;;;;;;;;;10287831;28;20178;-55
2023/12/11 07:48:51;;;;;;;16.33;11.13;;;;;;;;;;10286986;28;20086;-58
2023/12/11 07:53:54;;;;;;;11.52;9.43;;;;;;;;;;10287472;28;20093;-51
2023/12/11 07:58:55;;;;;;;14.80;10.65;;;;;;;;;;10286626;28;20046;-50
2023/12/11 08:03:57;;;;;;;19.13;10.52;;;;;;;;;;10287354;28;20449;-52
2023/12/11 08:09:00;;;;;;;13.55;9.88;;;;;;;;;;10287639;28;20057;-56
2023/12/11 08:14:00;;;;;;;12.55;9.73;;;;;;;;;;10286411;28;20377;-51
2023/12/11 08:19:01;;;;;;;14.50;9.65;;;;;;;;;;10286495;28;20035;-54
2023/12/11 08:24:01;;;;;;;15.20;10.13;;;;;;;;;;10286819;28;20055;-51
2023/12/11 08:29:02;;;;;;;10.95;9.18;;;;;;;;;;10285974;28;20109;-55
2023/12/11 08:34:03;;;;;;;11.77;9.73;;;;;;;;;;10286846;28;20026;-54
2023/12/11 08:39:03;;;;;;;12.32;9.40;;;;;;;;;;10292570;28;20038;-50
2023/12/11 08:44:04;;;;;;;13.85;9.52;;;;;;;;;;10294075;28;20383;-55
2023/12/11 08:49:05;;;;;;;15.55;9.32;;;;;;;;;;10293782;28;20035;-55
2023/12/11 08:54:05;;;;;;;11.63;8.77;;;;;;;;;;10294027;28;20018;-60
2023/12/11 08:59:06;;;;;;;12.65;9.07;;;;;;;;;;10293350;28;20495;-50
2023/12/11 09:04:07;;;;;;;12.80;8.95;;;;;;;;;;10293967;28;20038;-56
2023/12/11 09:09:08;;;;;;;11.15;9.10;;;;;;;;;;10293225;28;20030;-52
2023/12/11 09:14:08;;;;;;;11.65;8.27;;;;;;;;;;10284815;28;20061;-51
2023/12/11 09:19:09;;;;;;;15.43;8.77;;;;;;;;;;10281592;28;20160;-56
2023/12/11 09:24:11;;;;;;;11.02;8.88;;;;;;;;;;10281997;28;20019;-56
2023/12/11 09:29:12;;;;;;;12.52;8.77;;;;;;;;;;10281675;28;20124;-49
2023/12/11 09:34:12;;;;;;;9.07;8.15;;;;;;;;;;10281655;28;20023;-53
2023/12/11 09:39:13;;;;;;;10.02;8.55;;;;;;;;;;10281751;28;20481;-51
2023/12/11 09:44:16;;;;;;;10.93;8.38;;;;;;;;;;10281289;28;20018;-48
2023/12/11 09:49:17;;;;;;;13.05;8.25;;;;;;;;;;10280204;28;20105;-55
2023/12/11 09:54:17;;;;;;;10.13;8.30;;;;;;;;;;10280503;28;20030;-52
2023/12/11 09:59:18;;;;;;;9.73;8.20;;;;;;;;;;10280554;28;20482;-51
2023/12/11 10:04:19;;;;;;;10.23;8.23;;;;;;;;;;10263141;28;20031;-55
2023/12/11 10:09:35;;;;;;;10.52;8.80;;;;;;;;;;10280098;28;20283;-51
2023/12/11 10:14:37;;;;;;;10.98;8.77;;;;;;;;;;10280175;28;20110;-51
2023/12/11 10:19:37;;;;;;;11.35;8.30;;;;;;;;;;10280285;28;20252;-48
2023/12/11 10:24:42;;;;;;;10.68;8.30;;;;;;;;;;10279311;28;20035;-49
2023/12/11 10:29:42;;;;;;;8.90;7.95;;;;;;;;;;10278520;28;20065;-51
2023/12/11 10:34:50;;;;;;;14.18;8.18;;;;;;;;;;10278635;28;20031;-51
2023/12/11 10:39:55;;;;;;;11.25;8.90;;;;;;;;;;10278268;28;20035;-55
2023/12/11 10:44:56;;;;;;;10.65;8.43;;;;;;;;;;10278143;28;20038;-57
2023/12/11 10:50:02;;;;;;;11.10;8.60;;;;;;;;;;10277674;28;20030;-49
2023/12/11 10:55:03;;;;;;;12.38;9.63;;;;;;;;;;10261291;28;20034;-51
2023/12/11 11:00:04;;;;;;;13.23;10.32;;;;;;;;;;10276907;28;20046;-50
2023/12/11 11:05:05;;;;;;;13.85;9.65;;;;;;;;;;10276838;28;20034;-61
2023/12/11 11:10:21;;;;;;;12.07;9.40;;;;;;;;;;10259803;28;20026;-55
2023/12/11 11:15:25;;;;;;;13.70;9.98;;;;;;;;;;10277258;28;20219;-47
2023/12/11 11:20:31;;;;;;;13.63;9.23;;;;;;;;;;10259428;28;20090;-51
2023/12/11 11:25:36;;;;;;;13.25;9.70;;;;;;;;;;10276548;28;20434;-49
2023/12/11 11:30:45;;;;;;;13.15;9.20;;;;;;;;;;10276412;28;20486;-51
2023/12/11 11:35:48;;;;;;;12.55;8.85;;;;;;;;;;10276245;28;20027;-52
2023/12/11 11:40:51;;;;;;;12.48;9.57;;;;;;;;;;10276350;28;20027;-51
2023/12/11 11:45:55;;;;;;;13.10;9.45;;;;;;;;;;10275791;28;20187;-51
2023/12/11 11:50:56;;;;;;;13.30;9.20;;;;;;;;;;10276077;28;20035;-52
2023/12/11 11:56:01;;;;;;;12.85;9.02;;;;;;;;;;10264951;28;20019;-60
2023/12/11 12:01:05;;;;;;;13.45;8.80;;;;;;;;;;10286230;28;20129;-57
2023/12/11 12:06:06;;;;;;;10.38;8.50;;;;;;;;;;10280994;28;20035;-50
2023/12/11 12:11:07;;;;;;;11.15;8.23;;;;;;;;;;10276087;28;20106;-51
2023/12/11 12:16:08;;;;;;;8.65;7.75;;;;;;;;;;10260560;28;20157;-52
2023/12/11 12:21:09;;;;;;;10.95;8.60;;;;;;;;;;10276849;28;20077;-52
2023/12/11 12:26:10;;;;;;;15.52;8.52;;;;;;;;;;10280987;28;20215;-54
2023/12/11 12:31:11;;;;;;;12.35;8.82;;;;;;;;;;10277999;28;20053;-51
2023/12/11 12:36:11;;;;;;;10.15;7.97;;;;;;;;;;10277580;28;20061;-52
2023/12/11 12:41:12;;;;;;;11.52;8.27;;;;;;;;;;10264794;28;20035;-55
2023/12/11 12:46:13;;;;;;;9.82;7.70;;;;;;;;;;10281397;28;20054;-52
2023/12/11 12:51:13;;;;;;;10.10;8.30;;;;;;;;;;10276155;28;20042;-54
2023/12/11 12:56:19;;;;;;;9.07;7.70;;;;;;;;;;10275350;28;20430;-56
2023/12/11 13:01:19;;;;;;;10.15;7.95;;;;;;;;;;10274783;28;20050;-51
2023/12/11 13:06:26;;;;;;;9.50;7.40;;;;;;;;;;10599300;23;20514;-66
2023/12/11 13:11:45;;;;;;;8.48;7.57;;;;;;;;;;10274667;28;20038;-66
2023/12/11 13:16:47;;;;;;;;;;;;;;;;;;10277308;28;20027;-67
2023/12/11 13:21:48;;;;;;;9.85;7.82;;;;;;;;;;10284545;28;19957;-66
2023/12/11 13:26:48;;;;;;;11.48;8.02;;;;;;;;;;10291643;28;20027;-65
2023/12/11 13:31:49;;;;;;;12.93;7.80;;;;;;;;;;10286944;28;20034;-66
2023/12/11 13:36:50;;;;;;;8.93;7.20;;;;;;;;;;10281308;28;20113;-66
2023/12/11 13:41:50;;;;;;;13.27;7.70;;;;;;;;;;10281573;28;20478;-66
2023/12/11 13:46:51;;;;;;;9.13;7.35;;;;;;;;;;10279840;28;20470;-66
2023/12/11 13:51:51;;;;;;;9.93;7.85;;;;;;;;;;10279293;28;20089;-66
2023/12/11 13:56:52;;;;;;;11.80;7.55;;;;;;;;;;10279985;28;20052;-67
2023/12/11 14:01:56;;;;;;;10.63;7.53;;;;;;;;;;10278016;28;20027;-66
2023/12/11 14:06:57;;;;;;;14.27;7.32;;;;;;;;;;10278225;28;20486;-66
2023/12/11 14:11:58;;;;;;;10.77;7.20;;;;;;;;;;10278679;28;20033;-66
2023/12/11 14:16:59;;;;;;;8.60;7.07;;;;;;;;;;10278836;28;20018;-66
2023/12/11 14:21:59;;;;;;;10.77;7.55;;;;;;;;;;10277451;28;20394;-67
2023/12/11 14:27:00;;;;;;;11.43;7.55;;;;;;;;;;10277776;28;20039;-66
2023/12/11 14:32:01;;;;;;;12.35;7.18;;;;;;;;;;10276884;28;20077;-66
2023/12/11 14:37:03;;;;;;;8.70;6.93;;;;;;;;;;10277542;28;20022;-66
2023/12/11 14:42:05;;;;;;;7.38;6.35;;;;;;;;;;10277806;28;20041;-66
2023/12/11 14:47:06;;;;;;;14.65;7.18;;;;;;;;;;10277816;28;20130;-66
2023/12/11 14:52:07;;;;;;;10.30;7.35;;;;;;;;;;10282810;28;20246;-65
2023/12/11 14:57:07;;;;;;;8.32;7.32;;;;;;;;;;10284222;28;20038;-66
2023/12/11 15:02:10;;;;;;;9.55;6.88;;;;;;;;;;10286163;28;20195;-65
2023/12/11 15:07:11;;;;;;;8.30;6.60;;;;;;;;;;10285433;28;20494;-66
2023/12/11 15:12:11;;;;;;;10.63;6.97;;;;;;;;;;10284406;28;20088;-66
2023/12/11 15:17:12;;;;;;;10.13;7.13;;;;;;;;;;10281043;28;20133;-66
2023/12/11 15:22:13;;;;;;;8.68;7.18;;;;;;;;;;10284636;28;20027;-65
2023/12/11 15:27:13;;;;;;;8.68;6.85;;;;;;;;;;10275053;28;20174;-66
2023/12/11 15:32:15;;;;;;;11.05;6.72;;;;;;;;;;10275961;28;20031;-66
2023/12/11 15:37:16;;;;;;;10.23;6.82;;;;;;;;;;10276647;28;20118;-66
2023/12/11 15:42:19;;;;;;;10.93;7.97;;;;;;;;;;10281206;28;20518;-65
2023/12/11 15:47:20;;;;;;;10.25;7.60;;;;;;;;;;10276175;28;20429;-65
2023/12/11 15:52:23;;;;;;;7.90;6.95;;;;;;;;;;10275106;28;20027;-65
2023/12/11 15:57:24;;;;;;;9.35;6.65;;;;;;;;;;10274232;28;20042;-65
2023/12/11 16:02:24;;;;;;;9.48;7.03;;;;;;;;;;10275549;28;20043;-63
2023/12/11 16:07:25;;;;;;;10.48;7.55;;;;;;;;;;10284346;28;20097;-63
2023/12/11 16:12:25;;;;;;;12.98;6.57;;;;;;;;;;10279000;28;20027;-63
2023/12/11 16:17:26;;;;;;;9.13;7.60;;;;;;;;;;10283438;28;20034;-63
2023/12/11 16:22:27;;;;;;;9.15;7.22;;;;;;;;;;10280126;28;20386;-63
2023/12/11 16:27:27;;;;;;;14.45;6.72;;;;;;;;;;10280632;28;20027;-66
2023/12/11 16:32:29;;;;;;;14.68;7.07;;;;;;;;;;10278620;28;20030;-63
2023/12/11 16:37:29;;;;;;;9.30;7.35;;;;;;;;;;10279829;28;20159;-63
2023/12/11 16:42:32;;;;;;;8.52;7.10;;;;;;;;;;10283863;28;20487;-63
2023/12/11 16:47:33;;;;;;;8.57;6.53;;;;;;;;;;10280654;28;20407;-63
2023/12/11 16:52:34;;;;;;;10.15;6.55;;;;;;;;;;10281220;28;20050;-63
2023/12/11 16:57:34;;;;;;;8.98;6.97;;;;;;;;;;10274692;28;20031;-63
2023/12/11 17:02:35;;;;;;;8.52;6.38;;;;;;;;;;10290320;28;20030;-63
2023/12/11 17:07:36;;;;;;;8.63;6.88;;;;;;;;;;10292003;28;20047;-63
2023/12/11 17:12:36;;;;;;;9.80;6.60;;;;;;;;;;10291567;28;20030;-63
2023/12/11 17:17:37;;;;;;;8.57;6.18;;;;;;;;;;10291491;28;20375;-63
2023/12/11 17:22:37;;;;;;;9.25;6.47;;;;;;;;;;10291068;28;20406;-63
2023/12/11 17:27:38;;;;;;;10.68;6.47;;;;;;;;;;10280930;28;20431;-63
2023/12/11 17:32:39;;;;;;;9.70;6.55;;;;;;;;;;10279532;28;20030;-64
2023/12/11 17:37:39;;;;;;;9.18;6.93;;;;;;;;;;10286291;28;20532;-63
2023/12/11 17:42:40;;;;;;;8.18;6.47;;;;;;;;;;10288673;28;20089;-63
2023/12/11 17:47:41;;;;;;;8.93;6.57;;;;;;;;;;10289198;28;20042;-63
2023/12/11 17:52:41;;;;;;;9.82;6.57;;;;;;;;;;10284458;28;20041;-63
2023/12/11 17:57:42;;;;;;;8.73;6.65;;;;;;;;;;10288589;28;20130;-63
2023/12/11 18:02:42;;;;;;;7.47;6.03;;;;;;;;;;10282723;28;20038;-63
2023/12/11 18:07:43;;;;;;;7.18;5.70;;;;;;;;;;10277611;28;20035;-63
2023/12/11 18:12:44;;;;;;;7.55;6.13;;;;;;;;;;10274876;28;20037;-65
2023/12/11 18:17:45;;;;;;;8.00;6.03;;;;;;;;;;10280733;28;20102;-64
2023/12/11 18:22:45;;;;;;;7.15;5.88;;;;;;;;;;10288427;28;20026;-64
2023/12/11 18:27:46;;;;;;;7.70;6.10;;;;;;;;;;10288368;28;20026;-64
2023/12/11 18:32:46;;;;;;;8.65;6.38;;;;;;;;;;10289826;28;20505;-64
2023/12/11 18:37:47;;;;;;;9.55;6.63;;;;;;;;;;10288493;28;20038;-64
2023/12/11 18:42:48;;;;;;;7.47;6.00;;;;;;;;;;10287742;28;20320;-67
2023/12/11 18:47:48;;;;;;;8.30;6.22;;;;;;;;;;10261168;28;20342;-68
2023/12/11 18:52:49;;;;;;;8.35;5.88;;;;;;;;;;10289060;28;20031;-70
2023/12/11 18:57:51;;;;;;;7.20;5.72;;;;;;;;;;10282433;28;20256;-70
2023/12/11 19:02:51;;;;;;;11.23;7.43;;;;;;;;;;10280927;28;20031;-69
2023/12/11 19:07:52;;;;;;;12.52;8.32;;;;;;;;;;10273597;28;20027;-67
2023/12/11 19:12:55;;;;;;;9.98;7.70;;;;;;;;;;10256245;28;20031;-68
2023/12/11 19:17:55;;;;;;;10.00;7.43;;;;;;;;;;10274760;28;20090;-67
2023/12/11 19:22:56;;;;;;;15.68;8.85;;;;;;;;;;10275109;28;20367;-67
2023/12/11 19:27:57;;;;;;;32.83;11.65;;;;;;;;;;10274880;28;20030;-68
2023/12/11 19:32:58;;;;;;;35.83;9.38;;;;;;;;;;10261672;28;20085;-68
2023/12/11 19:37:59;;;;;;;26.27;9.50;;;;;;;;;;10278552;28;20078;-68
2023/12/11 19:43:00;;;;;;;26.20;9.75;;;;;;;;;;10281210;28;20019;-68
2023/12/11 19:48:00;;;;;;;17.92;8.40;;;;;;;;;;10283673;28;20410;-64
2023/12/11 19:53:01;;;;;;;18.23;9.93;;;;;;;;;;10276888;28;20104;-66
2023/12/11 19:58:02;;;;;;;16.65;9.73;;;;;;;;;;10282923;28;20034;-68
2023/12/11 20:03:02;;;;;;;14.13;9.38;;;;;;;;;;10283541;28;20410;-68
2023/12/11 20:08:04;;;;;;;15.75;10.57;;;;;;;;;;10265604;28;20117;-68
2023/12/11 20:13:04;;;;;;;17.23;10.77;;;;;;;;;;10279438;28;20497;-66
2023/12/11 20:18:06;;;;;;;18.20;9.52;;;;;;;;;;10284069;28;20027;-67
2023/12/11 20:23:06;;;;;;;25.08;10.48;;;;;;;;;;10283668;28;20110;-67
2023/12/11 20:28:07;;;;;;;24.45;10.63;;;;;;;;;;10284206;28;20488;-67
2023/12/11 20:33:07;;;;;;;15.02;9.23;;;;;;;;;;10282022;28;20027;-66
2023/12/11 20:38:08;;;;;;;21.30;10.20;;;;;;;;;;10283505;28;20031;-67
2023/12/11 20:43:10;;;;;;;14.32;9.88;;;;;;;;;;10282257;28;20038;-66
2023/12/11 20:48:11;;;;;;;21.65;10.63;;;;;;;;;;10279118;28;20074;-67
2023/12/11 20:53:11;;;;;;;12.60;9.15;;;;;;;;;;10282428;28;20025;-65
2023/12/11 20:58:12;;;;;;;15.57;9.48;;;;;;;;;;10279044;28;20193;-67
2023/12/11 21:03:12;;;;;;;17.15;10.43;;;;;;;;;;10277290;28;20042;-66
2023/12/11 21:08:13;;;;;;;18.38;10.35;;;;;;;;;;10278192;28;20031;-66
2023/12/11 21:13:13;;;;;;;14.32;10.18;;;;;;;;;;10283451;28;20034;-66
2023/12/11 21:18:14;;;;;;;17.20;10.73;;;;;;;;;;10265872;28;20352;-66
2023/12/11 21:23:15;;;;;;;19.48;11.32;;;;;;;;;;10281993;28;20035;-66
2023/12/11 21:28:15;;;;;;;14.68;10.40;;;;;;;;;;10281747;28;20161;-67
2023/12/11 21:33:17;;;;;;;17.05;10.40;;;;;;;;;;10282772;28;20018;-67
2023/12/11 21:38:17;;;;;;;15.32;11.10;;;;;;;;;;10278990;28;20034;-67
2023/12/11 21:43:18;;;;;;;17.48;10.57;;;;;;;;;;10283104;28;20034;-65
2023/12/11 21:48:18;;;;;;;18.70;10.88;;;;;;;;;;10290500;28;20026;-66
2023/12/11 21:53:19;;;;;;;15.43;11.52;;;;;;;;;;10286023;28;20179;-67
2023/12/11 21:58:19;;;;;;;22.42;11.35;;;;;;;;;;10288611;28;20031;-67
2023/12/11 22:03:20;;;;;;;21.17;10.85;;;;;;;;;;10281618;28;20039;-67
2023/12/11 22:08:21;;;;;;;15.50;10.65;;;;;;;;;;10289787;28;20031;-66
2023/12/11 22:13:21;;;;;;;18.20;11.48;;;;;;;;;;10285861;28;20062;-67
2023/12/11 22:18:22;;;;;;;14.50;10.35;;;;;;;;;;10280619;28;20026;-69
2023/12/11 22:23:22;;;;;;;23.40;10.65;;;;;;;;;;10278276;28;20023;-71
2023/12/11 22:28:23;;;;;;;20.52;10.77;;;;;;;;;;10260222;28;20168;-67
2023/12/11 22:33:24;;;;;;;18.65;10.23;;;;;;;;;;10277066;28;20030;-67
2023/12/11 22:38:24;;;;;;;15.57;9.90;;;;;;;;;;10277149;28;20034;-68
2023/12/11 22:43:25;;;;;;;16.45;10.15;;;;;;;;;;10277080;28;20035;-68
2023/12/11 22:48:25;;;;;;;14.55;9.98;;;;;;;;;;10277380;28;20386;-68
2023/12/11 22:53:26;;;;;;;21.92;10.10;;;;;;;;;;10278081;28;20026;-70
2023/12/11 22:58:26;;;;;;;13.77;9.88;;;;;;;;;;10276769;28;20058;-69
2023/12/11 23:03:27;;;;;;;19.60;10.18;;;;;;;;;;10265092;28;20494;-70
2023/12/11 23:08:28;;;;;;;17.20;9.23;;;;;;;;;;10285904;28;20497;-70
2023/12/11 23:13:28;;;;;;;13.23;9.10;;;;;;;;;;10286141;28;20042;-70
2023/12/11 23:18:29;;;;;;;13.40;9.15;;;;;;;;;;10286859;28;20030;-69
2023/12/11 23:23:29;;;;;;;16.42;9.70;;;;;;;;;;10288031;28;20034;-69
2023/12/11 23:28:30;;;;;;;17.40;10.23;;;;;;;;;;10287831;28;20023;-69
2023/12/11 23:33:30;;;;;;;16.15;9.32;;;;;;;;;;10288115;28;20038;-69
2023/12/11 23:38:31;;;;;;;15.05;9.27;;;;;;;;;;10288247;28;20027;-69
2023/12/11 23:43:32;;;;;;;14.95;9.07;;;;;;;;;;10269921;28;20098;-70
2023/12/11 23:48:32;;;;;;;15.13;8.90;;;;;;;;;;10287446;28;20031;-70
2023/12/11 23:53:33;;;;;;;13.68;9.10;;;;;;;;;;10287232;28;20074;-68
2023/12/11 23:58:33;;;;;;;15.80;9.40;;;;;;;;;;10287178;28;20034;-66
